Time;durP1;ratioP1;P1;durP2;ratioP2;P2;SDS_P1;SDS_P2;PMS_P1;PMS_P2;Temp;Humidity;BMP_temperature;BMP_pressure;BME280_temperature;BME280_humidity;BME280_pressure;Samples;Min_cycle;Max_cycle;Signal;HPM_P1;HPM_P2
2022/08/06 00:02:23;;;;;;;4.93;3.28;;;;;;;;;;4950798;28;20034;-65
2022/08/06 00:04:48;;;;;;;;;;;;;;;;;;4966106;28;20364;-65
2022/08/06 00:07:14;;;;;;;5.50;3.33;;;;;;;;;;4950687;28;19988;-65
2022/08/06 00:09:39;;;;;;;4.63;3.30;;;;;;;;;;4950518;28;20441;-65
2022/08/06 00:12:05;;;;;;;5.05;2.80;;;;;;;;;;4950479;28;20030;-65
2022/08/06 00:14:31;;;;;;;3.55;3.10;;;;;;;;;;4950655;28;20076;-65
2022/08/06 00:16:57;;;;;;;4.03;3.53;;;;;;;;;;4951502;28;20105;-65
2022/08/06 00:19:23;;;;;;;5.18;3.60;;;;;;;;;;4951433;28;20432;-65
2022/08/06 00:21:49;;;;;;;3.90;2.72;;;;;;;;;;4950289;28;20393;-65
2022/08/06 00:24:14;;;;;;;5.20;3.35;;;;;;;;;;4950337;28;20388;-65
2022/08/06 00:26:40;;;;;;;3.83;3.17;;;;;;;;;;4950100;28;20077;-65
2022/08/06 00:29:05;;;;;;;4.10;3.30;;;;;;;;;;4950030;28;20476;-65
2022/08/06 00:31:31;;;;;;;5.07;3.47;;;;;;;;;;4950735;28;20405;-65
2022/08/06 00:34:00;;;;;;;5.85;3.60;;;;;;;;;;4952333;28;20562;-65
2022/08/06 00:36:26;;;;;;;4.78;3.40;;;;;;;;;;4950035;28;20384;-67
2022/08/06 00:38:52;;;;;;;5.45;3.40;;;;;;;;;;4950402;28;20050;-65
2022/08/06 00:41:19;;;;;;;6.88;3.15;;;;;;;;;;4950019;28;20495;-65
2022/08/06 00:43:44;;;;;;;3.78;3.40;;;;;;;;;;4948695;28;20437;-65
2022/08/06 00:46:09;;;;;;;5.03;2.95;;;;;;;;;;4950091;28;20528;-65
2022/08/06 00:48:35;;;;;;;4.70;3.05;;;;;;;;;;4950607;28;20022;-65
2022/08/06 00:51:00;;;;;;;6.22;3.70;;;;;;;;;;4951943;28;20403;-65
2022/08/06 00:53:26;;;;;;;5.55;3.40;;;;;;;;;;4951025;28;20455;-65
2022/08/06 00:55:51;;;;;;;5.03;3.47;;;;;;;;;;4949702;28;20552;-65
2022/08/06 00:58:16;;;;;;;3.63;3.10;;;;;;;;;;4949722;28;20415;-65
2022/08/06 01:00:42;;;;;;;5.10;3.17;;;;;;;;;;4950163;28;20091;-65
2022/08/06 01:03:07;;;;;;;4.00;3.50;;;;;;;;;;4941328;28;20342;-65
2022/08/06 01:05:33;;;;;;;6.93;3.50;;;;;;;;;;4930563;28;20337;-65
2022/08/06 01:07:58;;;;;;;4.60;3.75;;;;;;;;;;4930989;28;20333;-65
2022/08/06 01:10:23;;;;;;;7.80;3.72;;;;;;;;;;4930105;28;20441;-65
2022/08/06 01:12:49;;;;;;;4.10;3.20;;;;;;;;;;4931607;28;20087;-65
2022/08/06 01:15:14;;;;;;;3.35;2.88;;;;;;;;;;4930859;28;20476;-65
2022/08/06 01:17:52;;;;;;;6.45;3.20;;;;;;;;;;4928737;28;20464;-65
2022/08/06 01:20:29;;;;;;;3.25;2.72;;;;;;;;;;4929048;28;20452;-65
2022/08/06 01:23:02;;;;;;;5.03;2.93;;;;;;;;;;4928639;28;20523;-65
2022/08/06 01:25:51;;;;;;;4.63;3.40;;;;;;;;;;4929257;28;20367;-65
2022/08/06 01:28:25;;;;;;;4.03;3.15;;;;;;;;;;4927848;28;20444;-65
2022/08/06 01:30:54;;;;;;;4.35;3.15;;;;;;;;;;4929687;28;20449;-65
2022/08/06 01:33:30;;;;;;;3.88;2.85;;;;;;;;;;4928615;28;20517;-65
2022/08/06 01:35:59;;;;;;;4.82;3.53;;;;;;;;;;4928875;28;20433;-65
2022/08/06 01:38:54;;;;;;;5.45;2.90;;;;;;;;;;4929481;28;20541;-65
2022/08/06 01:41:42;;;;;;;3.35;2.92;;;;;;;;;;4913089;28;20431;-65
2022/08/06 01:44:15;;;;;;;4.30;3.15;;;;;;;;;;4928292;28;20349;-65
2022/08/06 01:46:44;;;;;;;4.65;3.28;;;;;;;;;;4929572;28;20372;-65
2022/08/06 01:49:09;;;;;;;;;;;;;;;;;;4931742;28;20421;-65
2022/08/06 01:51:36;;;;;;;4.40;3.20;;;;;;;;;;4948892;28;20352;-65
2022/08/06 01:54:03;;;;;;;4.45;3.25;;;;;;;;;;4932299;28;20449;-65
2022/08/06 01:56:30;;;;;;;3.67;2.80;;;;;;;;;;4931035;28;20452;-65
2022/08/06 01:58:56;;;;;;;5.40;2.92;;;;;;;;;;4951037;28;20441;-66
2022/08/06 02:01:22;;;;;;;4.22;3.13;;;;;;;;;;4947510;28;20510;-65
2022/08/06 02:03:51;;;;;;;4.28;3.10;;;;;;;;;;4948965;28;20352;-65
2022/08/06 02:06:30;;;;;;;3.65;3.10;;;;;;;;;;4948582;28;20340;-65
2022/08/06 02:08:58;;;;;;;3.72;2.83;;;;;;;;;;4931467;28;20384;-65
2022/08/06 02:11:23;;;;;;;10.67;3.53;;;;;;;;;;4947809;28;20345;-65
2022/08/06 02:13:50;;;;;;;3.67;2.80;;;;;;;;;;4950003;28;20340;-65
2022/08/06 02:16:18;;;;;;;4.53;2.88;;;;;;;;;;4947002;28;20556;-65
2022/08/06 02:18:45;;;;;;;5.53;2.90;;;;;;;;;;4949106;28;20443;-65
2022/08/06 02:21:15;;;;;;;3.08;2.58;;;;;;;;;;4949384;28;20458;-65
2022/08/06 02:23:41;;;;;;;5.15;3.38;;;;;;;;;;4947370;28;20342;-65
2022/08/06 02:26:07;;;;;;;3.78;3.05;;;;;;;;;;4946799;28;20167;-66
2022/08/06 02:28:34;;;;;;;5.03;3.10;;;;;;;;;;4930811;28;20388;-65
2022/08/06 02:31:00;;;;;;;5.03;3.28;;;;;;;;;;4946656;28;20345;-65
2022/08/06 02:33:26;;;;;;;6.28;3.30;;;;;;;;;;4930737;28;20341;-65
2022/08/06 02:35:57;;;;;;;5.82;3.20;;;;;;;;;;4947386;28;20029;-65
2022/08/06 02:38:29;;;;;;;4.80;3.78;;;;;;;;;;4946840;28;20479;-65
2022/08/06 02:40:58;;;;;;;3.92;3.53;;;;;;;;;;4948241;28;20523;-65
2022/08/06 02:43:25;;;;;;;;;;;;;;;;;;4948778;28;20464;-77
2022/08/06 02:45:55;;;;;;;3.65;3.20;;;;;;;;;;4948503;28;20359;-65
2022/08/06 02:48:33;;;;;;;3.55;3.10;;;;;;;;;;4947024;28;20392;-65
2022/08/06 02:51:01;;;;;;;4.85;3.25;;;;;;;;;;4946638;28;20452;-65
2022/08/06 02:53:34;;;;;;;3.83;2.90;;;;;;;;;;4946588;28;20455;-65
2022/08/06 02:56:06;;;;;;;4.13;3.15;;;;;;;;;;4948515;28;20360;-65
2022/08/06 02:58:35;;;;;;;3.70;2.92;;;;;;;;;;4930596;28;20060;-66
2022/08/06 03:01:03;;;;;;;3.50;2.70;;;;;;;;;;4946766;28;20515;-65
2022/08/06 03:03:30;;;;;;;7.30;2.95;;;;;;;;;;4948504;28;20391;-65
2022/08/06 03:05:56;;;;;;;4.70;3.15;;;;;;;;;;4946699;28;20092;-65
2022/08/06 03:08:23;;;;;;;3.92;3.22;;;;;;;;;;4930534;28;20460;-65
2022/08/06 03:10:49;;;;;;;4.82;3.03;;;;;;;;;;4948118;28;20034;-65
2022/08/06 03:13:17;;;;;;;3.83;3.10;;;;;;;;;;4949948;28;20372;-66
2022/08/06 03:15:42;;;;;;;6.03;3.13;;;;;;;;;;4930201;28;20374;-65
2022/08/06 03:18:09;;;;;;;3.45;3.05;;;;;;;;;;4930454;28;20096;-65
2022/08/06 03:20:35;;;;;;;4.72;3.63;;;;;;;;;;4947063;28;20425;-65
2022/08/06 03:23:05;;;;;;;4.00;2.92;;;;;;;;;;4932670;28;20368;-65
2022/08/06 03:25:31;;;;;;;4.75;3.50;;;;;;;;;;4951742;28;20502;-65
2022/08/06 03:27:58;;;;;;;4.70;2.92;;;;;;;;;;4950760;28;20053;-65
2022/08/06 03:30:25;;;;;;;4.18;3.13;;;;;;;;;;4951478;28;20049;-65
2022/08/06 03:32:51;;;;;;;5.22;3.40;;;;;;;;;;4933612;28;20523;-65
2022/08/06 03:35:16;;;;;;;4.75;3.20;;;;;;;;;;4953361;28;20518;-65
2022/08/06 03:37:42;;;;;;;4.95;3.00;;;;;;;;;;4933758;28;20419;-66
2022/08/06 03:40:09;;;;;;;4.07;3.08;;;;;;;;;;4934049;28;20475;-65
2022/08/06 03:42:35;;;;;;;4.55;3.40;;;;;;;;;;4951208;28;20479;-65
2022/08/06 03:45:00;;;;;;;4.10;3.42;;;;;;;;;;4950942;28;20559;-66
2022/08/06 03:47:34;;;;;;;3.72;3.00;;;;;;;;;;4951065;28;20396;-65
2022/08/06 03:50:05;;;;;;;4.97;3.80;;;;;;;;;;4933656;28;20318;-65
2022/08/06 03:52:32;;;;;;;5.00;3.38;;;;;;;;;;4951181;28;20087;-65
2022/08/06 03:55:03;;;;;;;4.45;3.25;;;;;;;;;;4933316;28;20030;-65
2022/08/06 03:57:32;;;;;;;5.85;3.47;;;;;;;;;;4953044;28;20117;-65
2022/08/06 04:00:00;;;;;;;4.35;3.30;;;;;;;;;;4933813;28;20355;-65
2022/08/06 04:02:37;;;;;;;4.55;3.45;;;;;;;;;;4933498;28;20458;-65
2022/08/06 04:05:03;;;;;;;5.13;3.58;;;;;;;;;;4933633;28;20472;-65
2022/08/06 04:07:29;;;;;;;4.60;3.58;;;;;;;;;;4949093;28;20046;-65
2022/08/06 04:09:56;;;;;;;4.05;3.10;;;;;;;;;;4950799;28;20321;-65
2022/08/06 04:12:22;;;;;;;6.90;3.40;;;;;;;;;;4933208;28;20460;-65
2022/08/06 04:14:48;;;;;;;5.47;3.63;;;;;;;;;;4950534;28;20113;-65
2022/08/06 04:17:14;;;;;;;4.90;3.30;;;;;;;;;;4950784;28;20034;-65
2022/08/06 04:19:39;;;;;;;4.75;3.65;;;;;;;;;;4949113;28;20437;-65
2022/08/06 04:22:05;;;;;;;4.70;3.33;;;;;;;;;;4951906;28;20453;-65
2022/08/06 04:24:30;;;;;;;4.70;3.28;;;;;;;;;;4932842;28;20428;-65
2022/08/06 04:26:58;;;;;;;4.82;3.33;;;;;;;;;;4932466;28;20460;-65
2022/08/06 04:29:23;;;;;;;4.47;3.83;;;;;;;;;;4952092;28;20444;-65
2022/08/06 04:31:50;;;;;;;4.35;3.40;;;;;;;;;;4932605;28;20616;-66
2022/08/06 04:34:23;;;;;;;3.88;3.15;;;;;;;;;;4950229;28;20076;-66
2022/08/06 04:36:49;;;;;;;4.93;3.10;;;;;;;;;;4951722;28;20451;-65
2022/08/06 04:39:15;;;;;;;5.43;3.80;;;;;;;;;;4948754;28;20340;-65
2022/08/06 04:41:41;;;;;;;4.97;3.17;;;;;;;;;;4949897;28;20341;-65
2022/08/06 04:44:06;;;;;;;4.03;3.00;;;;;;;;;;4952347;28;20344;-65
2022/08/06 04:46:33;;;;;;;5.15;3.35;;;;;;;;;;4950675;28;20026;-66
2022/08/06 04:48:58;;;;;;;5.00;3.47;;;;;;;;;;4950138;28;20448;-65
2022/08/06 04:51:24;;;;;;;4.47;3.13;;;;;;;;;;4949597;28;20396;-65
2022/08/06 04:53:49;;;;;;;4.45;3.40;;;;;;;;;;4949756;28;20124;-65
2022/08/06 04:56:15;;;;;;;4.47;3.28;;;;;;;;;;4950084;28;20047;-65
2022/08/06 04:58:41;;;;;;;3.85;2.85;;;;;;;;;;4950889;28;20026;-65
2022/08/06 05:01:06;;;;;;;4.75;2.88;;;;;;;;;;4949558;28;20034;-65
2022/08/06 05:03:32;;;;;;;3.78;3.10;;;;;;;;;;4949605;28;20088;-65
2022/08/06 05:06:18;;;;;;;4.55;3.08;;;;;;;;;;4949619;28;20038;-65
2022/08/06 05:08:46;;;;;;;4.00;3.25;;;;;;;;;;4948350;28;20473;-65
2022/08/06 05:11:40;;;;;;;4.05;2.97;;;;;;;;;;4949407;28;20353;-65
2022/08/06 05:14:09;;;;;;;3.92;3.22;;;;;;;;;;4932313;28;20444;-66
2022/08/06 05:16:37;;;;;;;3.70;2.80;;;;;;;;;;4932120;28;20477;-65
2022/08/06 05:19:05;;;;;;;7.80;3.00;;;;;;;;;;4932025;28;20441;-65
2022/08/06 05:21:32;;;;;;;;;;;;;;;;;;4931940;28;20471;-65
2022/08/06 05:23:57;;;;;;;3.88;2.97;;;;;;;;;;4947987;28;20282;-65
2022/08/06 05:26:23;;;;;;;4.00;3.33;;;;;;;;;;4948698;28;20046;-65
2022/08/06 05:28:49;;;;;;;3.78;3.20;;;;;;;;;;4949563;28;20472;-70
2022/08/06 05:31:14;;;;;;;4.25;3.40;;;;;;;;;;4949128;28;20445;-65
2022/08/06 05:33:40;;;;;;;4.32;3.40;;;;;;;;;;4949471;28;20436;-65
2022/08/06 05:36:08;;;;;;;8.25;3.65;;;;;;;;;;4949226;28;20518;-65
2022/08/06 05:38:36;;;;;;;6.35;3.13;;;;;;;;;;4950740;28;20411;-65
2022/08/06 05:41:01;;;;;;;8.07;3.80;;;;;;;;;;4949208;28;20344;-65
2022/08/06 05:43:26;;;;;;;3.45;3.05;;;;;;;;;;4949463;28;20332;-65
2022/08/06 05:45:56;;;;;;;8.52;3.33;;;;;;;;;;4948984;28;20084;-65
2022/08/06 05:48:22;;;;;;;4.40;3.25;;;;;;;;;;4931151;28;20030;-65
2022/08/06 05:50:54;;;;;;;4.07;3.13;;;;;;;;;;4949072;28;20388;-65
2022/08/06 05:53:32;;;;;;;4.32;3.05;;;;;;;;;;4948793;28;20455;-65
2022/08/06 05:56:02;;;;;;;4.38;3.40;;;;;;;;;;4931393;28;20048;-65
2022/08/06 05:58:37;;;;;;;4.05;3.05;;;;;;;;;;4949027;28;20523;-65
2022/08/06 06:01:05;;;;;;;4.25;3.20;;;;;;;;;;4947268;28;20376;-65
2022/08/06 06:03:30;;;;;;;5.03;3.08;;;;;;;;;;4931094;28;20510;-65
2022/08/06 06:05:58;;;;;;;4.90;3.72;;;;;;;;;;4948557;28;20436;-65
2022/08/06 06:08:24;;;;;;;4.73;3.20;;;;;;;;;;4948788;28;20379;-65
2022/08/06 06:10:49;;;;;;;3.70;2.92;;;;;;;;;;4950058;28;20372;-65
2022/08/06 06:13:15;;;;;;;6.90;2.90;;;;;;;;;;4947015;28;20463;-65
2022/08/06 06:15:45;;;;;;;4.68;3.38;;;;;;;;;;4948406;28;20437;-65
2022/08/06 06:18:18;;;;;;;4.78;2.95;;;;;;;;;;4948616;28;20470;-65
2022/08/06 06:21:01;;;;;;;4.47;2.95;;;;;;;;;;4949273;28;20492;-65
2022/08/06 06:23:42;;;;;;;3.97;2.78;;;;;;;;;;4948797;28;20424;-65
2022/08/06 06:26:11;;;;;;;5.10;3.38;;;;;;;;;;4930241;28;20432;-65
2022/08/06 06:29:07;;;;;;;4.15;3.10;;;;;;;;;;4949128;28;20337;-65
2022/08/06 06:31:54;;;;;;;3.60;2.75;;;;;;;;;;4947245;28;20403;-65
2022/08/06 06:34:27;;;;;;;6.07;2.77;;;;;;;;;;4931169;28;20356;-65
2022/08/06 06:37:09;;;;;;;4.80;3.15;;;;;;;;;;4930758;28;20583;-65
2022/08/06 06:40:02;;;;;;;4.72;2.67;;;;;;;;;;4946863;28;20428;-65
2022/08/06 06:43:04;;;;;;;3.30;2.75;;;;;;;;;;4950310;28;20425;-65
2022/08/06 06:45:42;;;;;;;3.30;2.65;;;;;;;;;;4949022;28;20500;-65
2022/08/06 06:48:21;;;;;;;5.13;3.27;;;;;;;;;;4948608;28;20510;-65
2022/08/06 06:50:51;;;;;;;4.38;2.95;;;;;;;;;;4948298;28;20049;-65
2022/08/06 06:53:17;;;;;;;4.38;2.65;;;;;;;;;;4946697;28;20495;-65
2022/08/06 06:55:46;;;;;;;5.20;2.60;;;;;;;;;;4948133;28;20503;-65
2022/08/06 06:58:44;;;;;;;5.40;2.88;;;;;;;;;;4933674;28;20367;-64
2022/08/06 07:01:11;;;;;;;3.35;2.70;;;;;;;;;;4950378;28;20450;-65
2022/08/06 07:03:38;;;;;;;6.63;3.20;;;;;;;;;;4952497;28;20380;-65
2022/08/06 07:06:07;;;;;;;4.22;2.40;;;;;;;;;;4934926;28;20022;-64
2022/08/06 07:08:34;;;;;;;2.58;2.33;;;;;;;;;;4934338;28;20349;-65
2022/08/06 07:11:01;;;;;;;3.15;2.75;;;;;;;;;;4950016;28;20511;-65
2022/08/06 07:13:27;;;;;;;3.42;2.40;;;;;;;;;;4934015;28;20475;-65
2022/08/06 07:15:53;;;;;;;3.55;2.65;;;;;;;;;;4952282;28;20184;-65
2022/08/06 07:18:19;;;;;;;2.88;2.33;;;;;;;;;;4951578;28;20030;-65
2022/08/06 07:20:45;;;;;;;2.88;2.58;;;;;;;;;;4951400;28;20436;-65
2022/08/06 07:23:10;;;;;;;5.90;2.63;;;;;;;;;;4934197;28;20460;-65
2022/08/06 07:25:39;;;;;;;3.75;2.58;;;;;;;;;;4951511;28;20376;-65
2022/08/06 07:28:05;;;;;;;3.05;2.72;;;;;;;;;;4933539;28;20538;-65
2022/08/06 07:30:32;;;;;;;4.40;2.58;;;;;;;;;;4933559;28;20425;-65
2022/08/06 07:32:59;;;;;;;3.00;2.45;;;;;;;;;;4951155;28;20518;-65
2022/08/06 07:35:24;;;;;;;3.88;2.58;;;;;;;;;;4933940;28;20511;-65
2022/08/06 07:37:55;;;;;;;2.40;2.17;;;;;;;;;;4951324;28;20494;-65
2022/08/06 07:40:25;;;;;;;2.97;2.13;;;;;;;;;;4933975;28;20030;-65
2022/08/06 07:42:53;;;;;;;3.05;2.47;;;;;;;;;;4933890;28;20429;-65
2022/08/06 07:45:18;;;;;;;3.30;2.42;;;;;;;;;;4951233;28;20456;-65
2022/08/06 07:47:44;;;;;;;2.58;2.15;;;;;;;;;;4933483;28;20464;-65
2022/08/06 07:50:12;;;;;;;2.78;2.10;;;;;;;;;;4933350;28;20352;-65
2022/08/06 07:52:41;;;;;;;2.85;2.13;;;;;;;;;;4951524;28;20433;-65
2022/08/06 07:55:10;;;;;;;2.55;2.17;;;;;;;;;;4951113;28;20353;-65
2022/08/06 07:57:36;;;;;;;3.15;2.33;;;;;;;;;;4950756;28;20116;-65
2022/08/06 08:00:02;;;;;;;3.05;1.92;;;;;;;;;;4951174;28;20367;-65
2022/08/06 08:02:28;;;;;;;3.20;2.22;;;;;;;;;;4933656;28;20349;-65
2022/08/06 08:07:38;;;;;;;2.40;2.00;;;;;;;;;;4936665;28;20459;-65
2022/08/06 08:10:04;;;;;;;2.13;1.92;;;;;;;;;;4932164;28;20348;-65
2022/08/06 08:12:31;;;;;;;2.17;1.73;;;;;;;;;;4949175;28;20518;-65
2022/08/06 08:14:57;;;;;;;2.88;2.10;;;;;;;;;;4950953;28;20448;-66
2022/08/06 08:17:22;;;;;;;2.10;1.90;;;;;;;;;;4933167;28;20423;-65
2022/08/06 08:19:48;;;;;;;4.60;2.42;;;;;;;;;;4951168;28;20453;-65
2022/08/06 08:22:15;;;;;;;2.20;1.98;;;;;;;;;;4950632;28;20353;-65
2022/08/06 08:24:43;;;;;;;2.85;1.80;;;;;;;;;;4933060;28;20092;-65
2022/08/06 08:27:10;;;;;;;2.57;2.03;;;;;;;;;;4949794;28;20046;-65
2022/08/06 08:29:39;;;;;;;3.75;2.20;;;;;;;;;;4951275;28;20709;-65
2022/08/06 08:32:05;;;;;;;3.15;1.83;;;;;;;;;;4950572;28;20567;-65
2022/08/06 08:34:31;;;;;;;2.60;1.52;;;;;;;;;;4951205;28;20318;-65
2022/08/06 08:36:57;;;;;;;3.28;1.98;;;;;;;;;;4951710;28;20332;-65
2022/08/06 08:39:23;;;;;;;2.35;1.95;;;;;;;;;;4950094;28;20034;-65
2022/08/06 08:42:10;;;;;;;2.10;1.73;;;;;;;;;;4950203;28;20368;-65
2022/08/06 08:44:35;;;;;;;3.08;2.38;;;;;;;;;;4949993;28;20364;-65
2022/08/06 08:47:02;;;;;;;2.20;2.00;;;;;;;;;;4949836;28;20305;-65
2022/08/06 08:49:41;;;;;;;1.98;1.60;;;;;;;;;;4951308;28;20340;-65
2022/08/06 08:52:09;;;;;;;1.90;1.58;;;;;;;;;;4949895;28;20325;-65
2022/08/06 08:54:36;;;;;;;2.28;1.50;;;;;;;;;;4932126;28;20353;-65
2022/08/06 08:57:03;;;;;;;2.15;1.63;;;;;;;;;;4932071;28;20387;-69
2022/08/06 08:59:28;;;;;;;2.08;1.50;;;;;;;;;;4949982;28;20457;-65
2022/08/06 09:01:54;;;;;;;2.38;2.10;;;;;;;;;;4949603;28;20453;-65
2022/08/06 09:04:19;;;;;;;2.40;1.80;;;;;;;;;;4948926;28;20500;-65
2022/08/06 09:06:45;;;;;;;1.95;1.52;;;;;;;;;;4948092;28;20461;-65
2022/08/06 09:09:10;;;;;;;3.67;2.22;;;;;;;;;;4949731;28;20092;-65
2022/08/06 09:11:36;;;;;;;2.30;1.90;;;;;;;;;;4951431;28;20388;-65
2022/08/06 09:14:06;;;;;;;2.70;1.73;;;;;;;;;;4949930;28;20026;-65
2022/08/06 09:16:33;;;;;;;4.32;1.75;;;;;;;;;;4951240;28;20360;-65
2022/08/06 09:18:59;;;;;;;2.97;1.63;;;;;;;;;;4951349;28;20445;-65
2022/08/06 09:21:25;;;;;;;3.08;1.80;;;;;;;;;;4948889;28;20436;-65
2022/08/06 09:23:51;;;;;;;2.05;1.73;;;;;;;;;;4950012;28;20467;-65
2022/08/06 09:26:16;;;;;;;1.42;1.30;;;;;;;;;;4949813;28;20336;-66
2022/08/06 09:28:43;;;;;;;2.22;1.70;;;;;;;;;;4949190;28;20353;-65
2022/08/06 09:31:10;;;;;;;2.47;2.03;;;;;;;;;;4950132;28;20356;-65
2022/08/06 09:33:38;;;;;;;2.22;1.80;;;;;;;;;;4949094;28;20397;-65
2022/08/06 09:36:08;;;;;;;2.03;1.60;;;;;;;;;;4949409;28;20456;-65
2022/08/06 09:38:48;;;;;;;1.92;1.50;;;;;;;;;;4949297;28;20084;-65
2022/08/06 09:41:14;;;;;;;2.85;1.63;;;;;;;;;;4949187;28;20572;-65
2022/08/06 09:43:40;;;;;;;1.83;1.50;;;;;;;;;;4947528;28;20486;-65
2022/08/06 09:46:06;;;;;;;1.70;1.42;;;;;;;;;;4949246;28;20432;-66
2022/08/06 09:48:32;;;;;;;2.08;1.55;;;;;;;;;;4949153;28;20326;-65
2022/08/06 09:50:58;;;;;;;2.40;1.63;;;;;;;;;;4949566;28;20121;-64
2022/08/06 09:53:24;;;;;;;1.77;1.42;;;;;;;;;;4948805;28;20628;-65
2022/08/06 09:55:50;;;;;;;1.58;1.27;;;;;;;;;;4949340;28;20088;-64
2022/08/06 09:58:30;;;;;;;2.15;1.48;;;;;;;;;;4948763;28;20317;-64
2022/08/06 10:00:55;;;;;;;1.77;1.30;;;;;;;;;;4948675;28;20436;-65
2022/08/06 10:03:20;;;;;;;1.77;1.38;;;;;;;;;;4931071;28;20460;-64
2022/08/06 10:05:46;;;;;;;2.30;1.58;;;;;;;;;;4948828;28;20080;-65
2022/08/06 10:08:16;;;;;;;1.88;1.45;;;;;;;;;;4948801;28;20030;-64
2022/08/06 10:10:45;;;;;;;1.55;1.20;;;;;;;;;;4949328;28;20092;-65
2022/08/06 10:13:24;;;;;;;2.40;1.40;;;;;;;;;;4948537;28;20444;-65
2022/08/06 10:15:50;;;;;;;1.10;1.00;;;;;;;;;;4948805;28;20511;-64
2022/08/06 10:18:34;;;;;;;3.97;1.40;;;;;;;;;;4949124;28;20391;-64
2022/08/06 10:21:01;;;;;;;1.70;1.20;;;;;;;;;;4949227;28;20026;-65
2022/08/06 10:23:26;;;;;;;1.48;1.10;;;;;;;;;;4950204;28;20100;-64
2022/08/06 10:25:52;;;;;;;2.25;1.40;;;;;;;;;;4930811;28;20519;-65
2022/08/06 10:28:17;;;;;;;1.70;1.40;;;;;;;;;;4948208;28;20375;-64
2022/08/06 10:30:43;;;;;;;2.05;1.30;;;;;;;;;;4948353;28;20030;-65
2022/08/06 10:33:10;;;;;;;1.88;1.20;;;;;;;;;;4934438;28;20463;-65
2022/08/06 10:35:36;;;;;;;2.63;1.20;;;;;;;;;;4953550;28;20468;-64
2022/08/06 10:38:04;;;;;;;2.15;1.30;;;;;;;;;;4950835;28;20436;-68
2022/08/06 10:40:30;;;;;;;2.05;1.50;;;;;;;;;;4952392;28;20399;-65
2022/08/06 10:42:55;;;;;;;1.80;1.13;;;;;;;;;;4934796;28;20336;-65
2022/08/06 10:45:21;;;;;;;1.65;1.10;;;;;;;;;;4934652;28;20376;-64
2022/08/06 10:47:47;;;;;;;0.90;0.80;;;;;;;;;;4950799;28;20380;-64
2022/08/06 10:50:14;;;;;;;2.17;1.27;;;;;;;;;;4952164;28;20100;-65
2022/08/06 10:52:40;;;;;;;1.92;1.23;;;;;;;;;;4952620;28;20380;-66
2022/08/06 10:55:06;;;;;;;1.60;1.25;;;;;;;;;;4953604;28;20454;-65
2022/08/06 10:57:32;;;;;;;1.25;1.02;;;;;;;;;;4953440;28;20022;-65
2022/08/06 11:00:00;;;;;;;2.05;1.23;;;;;;;;;;4952703;28;20026;-65
2022/08/06 11:02:36;;;;;;;1.53;1.20;;;;;;;;;;4951963;28;20440;-65
2022/08/06 11:05:09;;;;;;;1.60;1.25;;;;;;;;;;4935404;28;20704;-64
2022/08/06 11:07:37;;;;;;;1.88;0.95;;;;;;;;;;4952095;28;20463;-64
2022/08/06 11:10:24;;;;;;;3.72;1.20;;;;;;;;;;4952283;28;20363;-64
2022/08/06 11:12:53;;;;;;;2.05;1.42;;;;;;;;;;4951554;28;20433;-65
2022/08/06 11:15:19;;;;;;;0.73;0.73;;;;;;;;;;4934221;28;20456;-65
2022/08/06 11:17:50;;;;;;;1.20;0.93;;;;;;;;;;4933930;28;20404;-65
2022/08/06 11:20:36;;;;;;;1.15;1.00;;;;;;;;;;4951575;28;20429;-65
2022/08/06 11:23:05;;;;;;;1.55;1.10;;;;;;;;;;4951927;28;20542;-65
2022/08/06 11:25:41;;;;;;;1.48;1.10;;;;;;;;;;4934124;28;20439;-65
2022/08/06 11:28:11;;;;;;;1.13;1.00;;;;;;;;;;4951217;28;20586;-64
2022/08/06 11:30:40;;;;;;;0.70;0.70;;;;;;;;;;4951783;28;20475;-65
2022/08/06 11:33:05;;;;;;;1.33;1.00;;;;;;;;;;4951536;28;20034;-64
2022/08/06 11:35:33;;;;;;;0.88;0.80;;;;;;;;;;4951290;28;20080;-64
2022/08/06 11:38:00;;;;;;;1.05;0.88;;;;;;;;;;4951612;28;20460;-64
2022/08/06 11:40:25;;;;;;;1.25;0.88;;;;;;;;;;4950354;28;20113;-64
2022/08/06 11:42:51;;;;;;;1.30;0.88;;;;;;;;;;4951000;28;20437;-65
2022/08/06 11:45:17;;;;;;;1.05;0.90;;;;;;;;;;4952197;28;20437;-64
2022/08/06 11:48:07;;;;;;;1.63;1.10;;;;;;;;;;4951148;28;20470;-64
2022/08/06 11:50:33;;;;;;;1.40;1.02;;;;;;;;;;4952412;28;20401;-65
2022/08/06 11:52:58;;;;;;;1.17;0.90;;;;;;;;;;4952371;28;20388;-65
2022/08/06 11:55:24;;;;;;;1.27;0.70;;;;;;;;;;4952126;28;20096;-65
2022/08/06 11:58:13;;;;;;;1.23;0.93;;;;;;;;;;4951172;28;20463;-65
2022/08/06 12:01:00;;;;;;;1.05;0.90;;;;;;;;;;4951341;28;20432;-65
2022/08/06 12:03:39;;;;;;;1.25;0.85;;;;;;;;;;4950910;28;20370;-64
2022/08/06 12:06:24;;;;;;;1.10;0.73;;;;;;;;;;4951368;28;20084;-65
2022/08/06 12:09:18;;;;;;;0.85;0.85;;;;;;;;;;4933028;28;20317;-64
2022/08/06 12:11:44;;;;;;;1.40;0.82;;;;;;;;;;4950758;28;20380;-64
2022/08/06 12:14:47;;;;;;;1.02;0.75;;;;;;;;;;4952642;28;20383;-65
2022/08/06 12:17:14;;;;;;;1.23;0.80;;;;;;;;;;4890618;29;20465;-64
2022/08/06 12:19:50;;;;;;;1.33;0.90;;;;;;;;;;4890663;29;20141;-66
2022/08/06 12:22:18;;;;;;;1.00;0.68;;;;;;;;;;4922719;28;20501;-65
2022/08/06 12:24:44;;;;;;;1.48;0.80;;;;;;;;;;4951116;28;20464;-65
2022/08/06 12:27:11;;;;;;;1.40;0.98;;;;;;;;;;4949974;28;20368;-64
2022/08/06 12:29:37;;;;;;;2.88;0.88;;;;;;;;;;4950396;28;20340;-64
2022/08/06 12:32:19;;;;;;;0.90;0.60;;;;;;;;;;4950244;28;20361;-65
2022/08/06 12:34:45;;;;;;;0.93;0.70;;;;;;;;;;4951242;28;20361;-65
2022/08/06 12:37:10;;;;;;;0.75;0.60;;;;;;;;;;4950411;28;20107;-65
2022/08/06 12:42:28;;;;;;;1.00;0.80;;;;;;;;;;4950155;28;20476;-64
2022/08/06 12:44:54;;;;;;;0.77;0.52;;;;;;;;;;4951172;28;20392;-64
2022/08/06 12:47:20;;;;;;;0.93;0.80;;;;;;;;;;4950978;28;20026;-65
2022/08/06 12:49:46;;;;;;;0.65;0.60;;;;;;;;;;4950075;28;20393;-64
2022/08/06 12:52:12;;;;;;;1.17;0.90;;;;;;;;;;4950360;28;20352;-64
2022/08/06 12:54:48;;;;;;;1.31;0.90;;;;;;;;;;4918572;28;10001481;-68
2022/08/06 12:57:27;;;;;;;1.13;0.68;;;;;;;;;;4949852;28;20574;-65
2022/08/06 12:59:53;;;;;;;0.82;0.63;;;;;;;;;;4951930;28;20030;-64
2022/08/06 13:02:19;;;;;;;0.93;0.80;;;;;;;;;;4949323;28;20129;-64
2022/08/06 13:04:48;;;;;;;1.20;0.90;;;;;;;;;;4949900;28;20352;-65
2022/08/06 13:07:14;;;;;;;1.35;0.73;;;;;;;;;;4949729;28;20372;-64
2022/08/06 13:09:40;;;;;;;1.88;0.90;;;;;;;;;;4949856;28;20411;-64
2022/08/06 13:12:17;;;;;;;1.20;0.90;;;;;;;;;;4949523;28;20049;-64
2022/08/06 13:14:55;;;;;;;2.20;1.02;;;;;;;;;;4932020;28;20480;-64
2022/08/06 13:17:22;;;;;;;1.33;0.90;;;;;;;;;;4949902;28;20384;-66
2022/08/06 13:19:52;;;;;;;1.77;0.90;;;;;;;;;;4950096;28;20314;-65
2022/08/06 13:22:17;;;;;;;1.15;0.93;;;;;;;;;;4949558;28;20466;-65
2022/08/06 13:24:43;;;;;;;1.13;0.88;;;;;;;;;;4948915;28;20384;-65
2022/08/06 13:27:08;;;;;;;1.52;0.95;;;;;;;;;;4947552;28;20420;-64
2022/08/06 13:29:34;;;;;;;1.23;0.80;;;;;;;;;;4949209;28;20061;-64
2022/08/06 13:32:11;;;;;;;1.13;0.98;;;;;;;;;;4949371;28;20415;-64
2022/08/06 13:34:52;;;;;;;1.52;1.10;;;;;;;;;;4949168;28;20348;-64
2022/08/06 13:37:44;;;;;;;10.02;0.90;;;;;;;;;;4949472;28;20349;-64
2022/08/06 13:40:09;;;;;;;2.17;1.23;;;;;;;;;;4948962;28;20056;-64
2022/08/06 13:42:51;;;;;;;2.00;0.98;;;;;;;;;;4949067;28;20433;-64
2022/08/06 13:45:25;;;;;;;2.75;1.10;;;;;;;;;;4950100;28;20099;-64
2022/08/06 13:48:09;;;;;;;1.38;0.93;;;;;;;;;;4949077;28;20400;-64
2022/08/06 13:50:36;;;;;;;2.38;1.00;;;;;;;;;;4948896;28;20376;-64
2022/08/06 13:53:02;;;;;;;1.20;0.88;;;;;;;;;;4949277;28;20030;-64
2022/08/06 13:55:29;;;;;;;1.67;1.08;;;;;;;;;;4949161;28;20416;-64
2022/08/06 13:57:55;;;;;;;1.48;1.10;;;;;;;;;;4949686;28;20447;-66
2022/08/06 14:00:20;;;;;;;1.77;1.00;;;;;;;;;;4950449;28;20339;-64
2022/08/06 14:02:46;;;;;;;1.40;1.02;;;;;;;;;;4948956;28;20033;-64
2022/08/06 14:05:12;;;;;;;1.95;1.15;;;;;;;;;;4949083;28;20472;-64
2022/08/06 14:07:37;;;;;;;2.17;1.17;;;;;;;;;;4949852;28;20306;-65
2022/08/06 14:10:03;;;;;;;2.38;1.20;;;;;;;;;;4948809;28;20408;-64
2022/08/06 14:12:28;;;;;;;1.63;1.30;;;;;;;;;;4930904;28;20419;-64
2022/08/06 14:14:53;;;;;;;1.02;0.90;;;;;;;;;;4948974;28;20344;-64
2022/08/06 14:17:19;;;;;;;1.90;1.38;;;;;;;;;;4948788;28;20506;-64
2022/08/06 14:19:44;;;;;;;2.22;1.50;;;;;;;;;;4948570;28;20038;-64
2022/08/06 14:22:10;;;;;;;1.52;1.30;;;;;;;;;;4949076;28;20329;-64
2022/08/06 14:24:35;;;;;;;1.30;0.95;;;;;;;;;;4949561;28;20437;-64
2022/08/06 14:27:01;;;;;;;2.17;1.42;;;;;;;;;;4948663;28;20396;-64
2022/08/06 14:29:26;;;;;;;2.92;1.50;;;;;;;;;;4948699;28;20437;-64
2022/08/06 14:31:51;;;;;;;2.67;1.23;;;;;;;;;;4948292;28;20328;-65
2022/08/06 14:34:17;;;;;;;1.50;1.30;;;;;;;;;;4948405;28;20423;-64
2022/08/06 14:36:42;;;;;;;2.38;1.60;;;;;;;;;;4948416;28;20483;-64
2022/08/06 14:39:11;;;;;;;2.03;1.63;;;;;;;;;;4948367;28;20440;-64
2022/08/06 14:47:08;;;;;;;2.03;1.40;;;;;;;;;;4948363;28;20510;-64
2022/08/06 14:49:34;;;;;;;1.77;1.27;;;;;;;;;;4948252;28;20357;-65
2022/08/06 14:51:59;;;;;;;2.80;1.25;;;;;;;;;;4948309;28;20034;-66
2022/08/06 14:54:25;;;;;;;2.47;1.60;;;;;;;;;;4948369;28;20456;-64
2022/08/06 14:56:50;;;;;;;3.25;1.80;;;;;;;;;;4948429;28;20433;-64
2022/08/06 14:59:16;;;;;;;2.25;1.23;;;;;;;;;;4948261;28;20514;-64
2022/08/06 15:01:42;;;;;;;1.90;1.40;;;;;;;;;;4948874;28;20429;-64
2022/08/06 15:04:07;;;;;;;3.53;1.48;;;;;;;;;;4948223;28;20352;-64
2022/08/06 15:06:33;;;;;;;1.88;1.40;;;;;;;;;;4948576;28;20365;-64